createdAt,value
2018-12-14T00:00:24.779Z,100261.11
2018-12-14T00:02:52.900Z,100263.55
2018-12-14T00:05:21.006Z,100267.51
2018-12-14T00:07:49.116Z,100261.63
2018-12-14T00:10:17.243Z,100265.72
2018-12-14T00:12:45.361Z,100269.96
2018-12-14T00:15:13.495Z,100268.18
2018-12-14T00:17:41.614Z,100271.63
2018-12-14T00:20:09.722Z,100267.67
2018-12-14T00:22:37.833Z,100268.81
2018-12-14T00:25:05.955Z,100269.81
2018-12-14T00:27:34.080Z,100271.77
2018-12-14T00:30:02.390Z,100274.07
2018-12-14T00:32:30.587Z,100275.84
2018-12-14T00:34:58.704Z,100277.63
2018-12-14T00:37:26.828Z,100277.80
2018-12-14T00:39:54.963Z,100281.53
2018-12-14T00:42:23.070Z,100277.75
2018-12-14T00:44:51.207Z,100280.72
2018-12-14T00:47:19.325Z,100282.03
2018-12-14T00:49:47.456Z,100276.44
2018-12-14T00:52:15.566Z,100280.53
2018-12-14T00:54:43.685Z,100281.53
2018-12-14T00:57:11.795Z,100284.79
2018-12-14T00:59:40.195Z,100289.21
2018-12-14T01:02:10.298Z,100292.00
2018-12-14T01:04:38.440Z,100295.11
2018-12-14T01:07:06.579Z,100295.27
2018-12-14T01:09:34.711Z,100300.66
2018-12-14T01:12:02.813Z,100300.95
2018-12-14T01:14:30.938Z,100299.16
2018-12-14T01:16:59.052Z,100296.72
2018-12-14T01:19:27.185Z,100296.39
2018-12-14T01:21:55.325Z,100293.44
2018-12-14T01:24:23.483Z,100292.78
2018-12-14T01:26:51.588Z,100290.14
2018-12-14T01:29:19.707Z,100293.10
2018-12-14T01:31:47.819Z,100287.86
2018-12-14T01:34:16.050Z,100290.47
2018-12-14T01:36:44.166Z,100287.52
2018-12-14T01:39:12.287Z,100287.85
2018-12-14T01:41:40.395Z,100286.55
2018-12-14T01:44:08.550Z,100291.13
2018-12-14T01:46:36.661Z,100290.61
2018-12-14T01:49:04.791Z,100293.59
2018-12-14T01:51:32.904Z,100292.45
2018-12-14T01:54:01.031Z,100299.13
2018-12-14T01:56:29.139Z,100288.81
2018-12-14T01:58:57.265Z,100292.77
2018-12-14T02:01:25.386Z,100290.30
2018-12-14T02:03:53.521Z,100288.00
2018-12-14T02:06:21.637Z,100290.78
2018-12-14T02:08:49.765Z,100290.77
2018-12-14T02:11:17.870Z,100290.92
2018-12-14T02:13:46.073Z,100289.31
2018-12-14T02:16:14.188Z,100290.62
2018-12-14T02:18:42.305Z,100288.98
2018-12-14T02:21:10.449Z,100288.48
2018-12-14T02:23:38.576Z,100282.27
2018-12-14T02:26:06.722Z,100284.06
2018-12-14T02:28:34.955Z,100284.24
2018-12-14T02:31:03.095Z,100282.92
2018-12-14T02:33:31.212Z,100282.09
2018-12-14T02:35:59.337Z,100274.70
2018-12-14T02:38:27.445Z,100276.33
2018-12-14T02:40:55.578Z,100276.98
2018-12-14T02:43:24.064Z,100270.43
2018-12-14T02:45:52.186Z,100277.33
2018-12-14T02:48:20.296Z,100274.19
2018-12-14T02:50:48.420Z,100275.52
2018-12-14T02:53:16.540Z,100270.41
2018-12-14T02:55:44.660Z,100271.26
2018-12-14T02:58:12.796Z,100274.70
2018-12-14T03:00:40.927Z,100270.93
2018-12-14T03:03:09.053Z,100270.59
2018-12-14T03:05:37.185Z,100275.34
2018-12-14T03:08:05.301Z,100276.84
2018-12-14T03:10:33.450Z,100270.60
2018-12-14T03:13:01.556Z,100271.93
2018-12-14T03:15:29.685Z,100275.03
2018-12-14T03:17:57.842Z,100273.55
2018-12-14T03:20:25.972Z,100272.72
2018-12-14T03:22:54.087Z,100277.80
2018-12-14T03:25:25.537Z,100283.69
2018-12-14T03:27:53.647Z,100283.20
2018-12-14T03:30:21.788Z,100284.36
2018-12-14T03:32:49.917Z,100284.36
2018-12-14T03:35:18.070Z,100284.86
2018-12-14T03:37:46.188Z,100285.52
2018-12-14T03:40:14.297Z,100279.94
2018-12-14T03:42:42.401Z,100282.26
2018-12-14T03:45:10.991Z,100272.30
2018-12-14T03:47:39.107Z,100279.98
2018-12-14T03:50:07.239Z,100283.59
2018-12-14T03:52:35.358Z,100281.63
2018-12-14T03:55:03.741Z,100285.09
2018-12-14T03:57:31.852Z,100282.62
2018-12-14T03:59:59.978Z,100285.74
2018-12-14T04:02:28.156Z,100288.20
2018-12-14T04:04:56.357Z,100284.08
2018-12-14T04:07:24.491Z,100282.80
2018-12-14T04:09:52.606Z,100282.48
2018-12-14T04:12:20.763Z,100288.88
2018-12-14T04:14:48.903Z,100283.31
2018-12-14T04:17:17.011Z,100285.45
2018-12-14T04:19:45.135Z,100287.41
2018-12-14T04:22:13.256Z,100282.17
2018-12-14T04:24:41.392Z,100290.52
2018-12-14T04:27:09.504Z,100286.59
2018-12-14T04:29:37.630Z,100289.55
2018-12-14T04:32:05.778Z,100284.61
2018-12-14T04:34:34.027Z,100275.94
2018-12-14T04:37:02.257Z,100282.67
2018-12-14T04:39:31.255Z,100282.53
2018-12-14T04:41:59.629Z,100280.08
2018-12-14T04:44:27.744Z,100288.30
2018-12-14T04:46:56.452Z,100286.49
2018-12-14T04:49:24.873Z,100284.71
2018-12-14T04:51:53.004Z,100286.86
2018-12-14T04:54:21.113Z,100280.83
2018-12-14T04:56:49.234Z,100279.04
2018-12-14T04:59:17.347Z,100275.45
2018-12-14T05:01:45.476Z,100276.28
2018-12-14T05:04:13.583Z,100264.33
2018-12-14T05:06:41.729Z,100278.25
2018-12-14T05:09:09.859Z,100273.34
2018-12-14T05:11:39.281Z,100276.28
2018-12-14T05:14:07.631Z,100269.92
2018-12-14T05:16:35.774Z,100270.92
2018-12-14T05:19:03.873Z,100269.96
2018-12-14T05:21:31.994Z,100272.55
2018-12-14T05:24:00.103Z,100281.88
2018-12-14T05:26:29.001Z,100282.67
2018-12-14T05:28:57.266Z,100284.47
2018-12-14T05:31:25.383Z,100285.97
2018-12-14T05:33:53.490Z,100290.77
2018-12-14T05:36:21.615Z,100289.61
2018-12-14T05:38:49.720Z,100292.41
2018-12-14T05:41:17.834Z,100295.50
2018-12-14T05:43:45.963Z,100290.59
2018-12-14T05:46:14.095Z,100303.20
2018-12-14T05:48:42.211Z,100297.91
2018-12-14T05:51:10.339Z,100296.48
2018-12-14T05:53:38.450Z,100301.74
2018-12-14T05:56:06.559Z,100306.80
2018-12-14T05:58:34.664Z,100307.46
2018-12-14T06:01:02.798Z,100308.41
2018-12-14T06:03:30.915Z,100310.37
2018-12-14T06:05:59.034Z,100312.19
2018-12-14T06:08:27.151Z,100318.45
2018-12-14T06:10:55.281Z,100312.06
2018-12-14T06:13:23.398Z,100312.89
2018-12-14T06:15:51.516Z,100320.11
2018-12-14T06:18:19.620Z,100318.60
2018-12-14T06:20:47.730Z,100324.33
2018-12-14T06:23:15.873Z,100324.16
2018-12-14T06:25:44.006Z,100327.26
2018-12-14T06:28:12.117Z,100332.31
2018-12-14T06:30:40.337Z,100333.14
2018-12-14T06:33:08.445Z,100327.55
2018-12-14T06:35:36.572Z,100328.54
2018-12-14T06:38:04.686Z,100331.63
2018-12-14T06:40:32.831Z,100334.72
2018-12-14T06:43:00.926Z,100338.45
2018-12-14T06:45:29.045Z,100337.14
2018-12-14T06:47:57.147Z,100342.01
2018-12-14T06:50:27.125Z,100341.84
2018-12-14T06:52:55.523Z,100348.55
2018-12-14T06:55:23.639Z,100346.77
2018-12-14T06:57:51.764Z,100352.98
2018-12-14T07:00:19.863Z,100357.76
2018-12-14T07:02:47.984Z,100365.33
2018-12-14T07:05:16.158Z,100366.64
2018-12-14T07:07:44.281Z,100363.09
2018-12-14T07:10:12.385Z,100369.01
2018-12-14T07:12:40.833Z,100371.95
2018-12-14T07:15:09.140Z,100374.57
2018-12-14T07:17:37.266Z,100371.46
2018-12-14T07:20:06.436Z,100375.22
2018-12-14T07:22:34.557Z,100379.98
2018-12-14T07:25:02.674Z,100387.05
2018-12-14T07:27:30.788Z,100391.30
2018-12-14T07:29:58.885Z,100389.52
2018-12-14T07:32:26.992Z,100398.03
2018-12-14T07:34:55.096Z,100403.78
2018-12-14T07:37:23.232Z,100407.86
2018-12-14T07:39:51.335Z,100400.50
2018-12-14T07:42:19.452Z,100406.87
2018-12-14T07:44:47.595Z,100407.55
2018-12-14T07:47:15.908Z,100407.22
2018-12-14T07:49:44.042Z,100410.20
2018-12-14T07:52:12.152Z,100411.70
2018-12-14T07:54:40.249Z,100412.36
2018-12-14T07:57:08.359Z,100423.83
2018-12-14T07:59:36.472Z,100423.54
2018-12-14T08:02:04.590Z,100427.31
2018-12-14T08:04:33.159Z,100429.92
2018-12-14T08:07:01.365Z,100431.58
2018-12-14T08:09:29.467Z,100430.41
2018-12-14T08:11:57.581Z,100432.88
2018-12-14T08:14:25.756Z,100430.94
2018-12-14T08:16:53.863Z,100430.61
2018-12-14T08:19:21.966Z,100433.05
2018-12-14T08:21:50.090Z,100436.03
2018-12-14T08:24:18.192Z,100439.15
2018-12-14T08:26:46.310Z,100445.56
2018-12-14T08:29:14.431Z,100447.70
2018-12-14T08:31:42.556Z,100449.84
2018-12-14T08:34:10.651Z,100457.03
2018-12-14T08:36:39.044Z,100456.20
2018-12-14T08:39:07.159Z,100458.05
2018-12-14T08:41:35.281Z,100460.99
2018-12-14T08:44:03.405Z,100467.37
2018-12-14T08:46:31.530Z,100476.23
2018-12-14T08:48:59.651Z,100472.14
2018-12-14T08:51:27.788Z,100474.13
2018-12-14T08:53:55.917Z,100476.08
2018-12-14T08:56:24.024Z,100480.84
2018-12-14T08:58:52.141Z,100485.27
2018-12-14T09:01:20.244Z,100488.36
2018-12-14T09:03:48.369Z,100491.46
2018-12-14T09:06:16.491Z,100492.30
2018-12-14T09:08:44.600Z,100490.30
2018-12-14T09:11:12.710Z,100493.57
2018-12-14T09:13:40.845Z,100494.70
2018-12-14T09:16:08.965Z,100497.67
2018-12-14T09:18:37.156Z,100498.95
2018-12-14T09:21:05.257Z,100502.86
2018-12-14T09:23:33.389Z,100505.66
2018-12-14T09:26:01.651Z,100501.06
2018-12-14T09:28:29.766Z,100510.23
2018-12-14T09:30:57.874Z,100504.98
2018-12-14T09:33:25.993Z,100509.77
2018-12-14T09:35:54.089Z,100505.31
2018-12-14T09:38:22.203Z,100508.11
2018-12-14T09:40:50.313Z,100509.78
2018-12-14T09:43:18.430Z,100510.78
2018-12-14T09:45:46.550Z,100515.35
2018-12-14T09:48:14.677Z,100521.73
2018-12-14T09:50:42.783Z,100512.08
2018-12-14T09:53:12.912Z,100517.52
2018-12-14T09:55:41.233Z,100519.63
2018-12-14T09:58:09.355Z,100519.47
2018-12-14T10:00:37.462Z,100524.52
2018-12-14T10:03:05.591Z,100524.05
2018-12-14T10:05:33.716Z,100526.95
2018-12-14T10:08:01.853Z,100522.20
2018-12-14T10:10:29.950Z,100523.36
2018-12-14T10:12:58.072Z,100527.59
2018-12-14T10:15:26.207Z,100527.92
2018-12-14T10:17:54.352Z,100529.22
2018-12-14T10:20:22.456Z,100528.19
2018-12-14T10:22:50.571Z,100528.69
2018-12-14T10:25:18.670Z,100525.56
2018-12-14T10:27:46.794Z,100516.55
2018-12-14T10:30:14.896Z,100526.00
2018-12-14T10:32:43.025Z,100518.16
2018-12-14T10:35:11.123Z,100525.02
2018-12-14T10:37:39.240Z,100525.80
2018-12-14T10:40:11.200Z,100518.27
2018-12-14T10:42:39.307Z,100514.66
2018-12-14T10:45:07.767Z,100518.62
2018-12-14T10:47:35.907Z,100520.07
2018-12-14T10:50:04.003Z,100518.77
2018-12-14T10:52:32.120Z,100514.83
2018-12-14T10:55:00.317Z,100519.23
2018-12-14T10:57:28.448Z,100523.81
2018-12-14T10:59:56.550Z,100518.90
2018-12-14T11:02:24.695Z,100514.64
2018-12-14T11:04:52.814Z,100516.27
2018-12-14T11:07:20.941Z,100520.86
2018-12-14T11:09:49.060Z,100523.97
2018-12-14T11:12:17.161Z,100516.28
2018-12-14T11:14:45.287Z,100517.91
2018-12-14T11:17:13.380Z,100514.30
2018-12-14T11:19:41.522Z,100505.28
2018-12-14T11:22:09.760Z,100510.06
2018-12-14T11:24:37.874Z,100508.74
2018-12-14T11:27:05.974Z,100512.00
2018-12-14T11:29:34.124Z,100507.10
2018-12-14T11:32:03.076Z,100505.29
2018-12-14T11:34:31.185Z,100504.64
2018-12-14T11:36:59.295Z,100505.30
2018-12-14T11:39:27.419Z,100506.27
2018-12-14T11:41:55.616Z,100507.08
2018-12-14T11:44:23.741Z,100501.86
2018-12-14T11:46:51.832Z,100507.11
2018-12-14T11:49:19.941Z,100507.92
2018-12-14T11:51:48.067Z,100511.53
2018-12-14T11:54:17.497Z,100506.78
2018-12-14T11:56:45.722Z,100507.75
2018-12-14T11:59:13.826Z,100504.31
2018-12-14T12:01:41.928Z,100503.66
2018-12-14T12:04:10.054Z,100505.77
2018-12-14T12:06:38.154Z,100505.77
2018-12-14T12:09:08.601Z,100501.02
2018-12-14T12:11:36.727Z,100501.52
2018-12-14T12:14:04.853Z,100497.78
2018-12-14T12:16:32.953Z,100502.84
2018-12-14T12:19:01.076Z,100495.17
2018-12-14T12:21:29.251Z,100500.42
2018-12-14T12:23:57.358Z,100500.91
2018-12-14T12:26:25.468Z,100500.27
2018-12-14T12:28:53.591Z,100499.74
2018-12-14T12:31:21.742Z,100500.73
2018-12-14T12:33:49.849Z,100501.72
2018-12-14T12:36:17.962Z,100503.70
2018-12-14T12:38:46.087Z,100504.17
2018-12-14T12:41:14.200Z,100504.98
2018-12-14T12:43:42.318Z,100500.70
2018-12-14T12:46:10.424Z,100502.82
2018-12-14T12:48:39.046Z,100493.19
2018-12-14T12:51:07.140Z,100502.19
2018-12-14T12:53:35.293Z,100505.63
2018-12-14T12:56:03.395Z,100502.34
2018-12-14T12:58:31.504Z,100506.11
2018-12-14T13:00:59.614Z,100507.28
2018-12-14T13:03:27.727Z,100507.28
2018-12-14T13:05:55.840Z,100507.13
2018-12-14T13:08:23.961Z,100506.11
2018-12-14T13:10:52.068Z,100504.16
2018-12-14T13:13:20.177Z,100508.41
2018-12-14T13:15:48.290Z,100500.73
2018-12-14T13:18:16.409Z,100503.98
2018-12-14T13:20:44.540Z,100510.20
2018-12-14T13:23:12.639Z,100510.22
2018-12-14T13:25:40.759Z,100516.95
2018-12-14T13:28:09.139Z,100514.98
2018-12-14T13:30:37.529Z,100518.37
2018-12-14T13:33:06.021Z,100519.03
2018-12-14T13:35:34.195Z,100524.11
2018-12-14T13:38:02.297Z,100530.50
2018-12-14T13:40:30.415Z,100528.21
2018-12-14T13:42:58.511Z,100533.78
2018-12-14T13:45:26.632Z,100534.94
2018-12-14T13:47:54.734Z,100538.39
2018-12-14T13:50:22.854Z,100538.73
2018-12-14T13:52:50.961Z,100543.66
2018-12-14T13:55:19.076Z,100547.27
2018-12-14T13:57:47.194Z,100553.98
2018-12-14T14:00:15.310Z,100561.02
2018-12-14T14:02:43.415Z,100558.91
2018-12-14T14:05:11.529Z,100557.94
2018-12-14T14:07:39.637Z,100559.09
2018-12-14T14:10:07.759Z,100564.84
2018-12-14T14:12:35.863Z,100577.61
2018-12-14T14:15:06.328Z,100577.09
2018-12-14T14:17:34.433Z,100577.59
2018-12-14T14:20:02.992Z,100579.89
2018-12-14T14:22:31.173Z,100577.74
2018-12-14T14:24:59.301Z,100580.04
2018-12-14T14:27:27.404Z,100586.79
2018-12-14T14:29:55.525Z,100592.51
2018-12-14T14:32:23.634Z,100590.54
2018-12-14T14:34:51.757Z,100597.59
2018-12-14T14:37:19.862Z,100593.98
2018-12-14T14:39:47.972Z,100598.25
2018-12-14T14:42:16.081Z,100594.48
2018-12-14T14:44:44.212Z,100597.27
2018-12-14T14:47:12.328Z,100594.62
2018-12-14T14:49:40.441Z,100596.77
2018-12-14T14:52:08.532Z,100604.29
2018-12-14T14:54:39.891Z,100601.34
2018-12-14T14:57:06.803Z,100606.92
2018-12-14T14:59:34.924Z,100605.63
2018-12-14T15:02:03.037Z,100611.01
2018-12-14T15:04:31.144Z,100611.70
2018-12-14T15:06:59.253Z,100610.06
2018-12-14T15:09:27.375Z,100616.11
2018-12-14T15:11:56.111Z,100614.82
2018-12-14T15:14:24.230Z,100616.61
2018-12-14T15:16:52.322Z,100623.19
2018-12-14T15:19:20.500Z,100622.88
2018-12-14T15:21:48.622Z,100629.27
2018-12-14T15:24:16.750Z,100625.17
2018-12-14T15:26:44.850Z,100632.20
2018-12-14T15:29:12.958Z,100638.28
2018-12-14T15:31:42.944Z,100641.06
2018-12-14T15:34:14.350Z,100644.02
2018-12-14T15:36:41.189Z,100645.33
2018-12-14T15:39:09.301Z,100646.80
2018-12-14T15:41:37.423Z,100644.83
2018-12-14T15:44:05.523Z,100648.42
2018-12-14T15:46:33.734Z,100655.16
2018-12-14T15:49:01.953Z,100646.14
2018-12-14T15:51:30.089Z,100647.77
2018-12-14T15:53:58.206Z,100643.67
2018-12-14T15:56:26.321Z,100648.61
2018-12-14T15:58:54.444Z,100654.02
2018-12-14T16:01:22.571Z,100652.88
2018-12-14T16:03:50.665Z,100659.59
2018-12-14T16:06:18.784Z,100660.75
2018-12-14T16:08:46.888Z,100667.13
2018-12-14T16:11:15.009Z,100664.98
2018-12-14T16:13:43.112Z,100668.61
2018-12-14T16:16:11.952Z,100667.63
2018-12-14T16:18:40.098Z,100667.30
2018-12-14T16:21:08.304Z,100671.88
2018-12-14T16:23:36.439Z,100667.61
2018-12-14T16:26:04.669Z,100670.72
2018-12-14T16:28:32.780Z,100673.00
2018-12-14T16:31:00.906Z,100673.84
2018-12-14T16:33:29.031Z,100674.34
2018-12-14T16:35:57.146Z,100680.06
2018-12-14T16:38:25.258Z,100678.59
2018-12-14T16:40:53.379Z,100683.00
2018-12-14T16:43:21.485Z,100688.41
2018-12-14T16:45:49.613Z,100685.95
2018-12-14T16:48:17.713Z,100685.80
2018-12-14T16:50:45.828Z,100697.30
2018-12-14T16:53:13.933Z,100703.84
2018-12-14T16:55:42.049Z,100704.84
2018-12-14T16:58:10.165Z,100702.38
2018-12-14T17:00:38.282Z,100702.20
2018-12-14T17:03:06.386Z,100702.84
2018-12-14T17:05:34.500Z,100701.86
2018-12-14T17:08:02.601Z,100707.12
2018-12-14T17:10:30.736Z,100712.36
2018-12-14T17:12:58.842Z,100713.32
2018-12-14T17:15:33.021Z,100713.67
2018-12-14T17:17:57.089Z,100720.72
2018-12-14T17:20:25.206Z,100718.91
2018-12-14T17:22:53.313Z,100723.35
2018-12-14T17:25:21.421Z,100721.52
2018-12-14T17:27:49.534Z,100728.59
2018-12-14T17:30:17.646Z,100728.41
2018-12-14T17:32:45.745Z,100735.31
2018-12-14T17:35:13.889Z,100732.69
2018-12-14T17:37:41.973Z,100731.88
2018-12-14T17:40:10.108Z,100735.34
2018-12-14T17:42:38.205Z,100736.80
2018-12-14T17:45:06.336Z,100738.30
2018-12-14T17:47:34.443Z,100739.27
2018-12-14T17:50:02.545Z,100736.81
2018-12-14T17:52:30.673Z,100740.89
2018-12-14T17:54:58.774Z,100737.47
2018-12-14T17:57:26.905Z,100740.41
2018-12-14T17:59:55.002Z,100742.22
2018-12-14T18:02:23.562Z,100742.88
2018-12-14T18:04:51.665Z,100749.09
2018-12-14T18:07:19.796Z,100744.84
2018-12-14T18:09:47.917Z,100748.12
2018-12-14T18:12:16.024Z,100749.26
2018-12-14T18:14:44.131Z,100744.83
2018-12-14T18:17:12.270Z,100750.09
2018-12-14T18:19:40.383Z,100755.81
2018-12-14T18:22:08.781Z,100762.20
2018-12-14T18:24:36.897Z,100767.61
2018-12-14T18:27:05.023Z,100773.19
2018-12-14T18:29:33.141Z,100775.50
2018-12-14T18:32:01.259Z,100774.48
2018-12-14T18:34:29.352Z,100777.95
2018-12-14T18:36:57.482Z,100779.43
2018-12-14T18:39:25.597Z,100780.56
2018-12-14T18:41:53.709Z,100781.88
2018-12-14T18:44:21.814Z,100784.48
2018-12-14T18:46:49.959Z,100782.37
2018-12-14T18:49:18.129Z,100786.11
2018-12-14T18:51:46.249Z,100783.98
2018-12-14T18:54:14.363Z,100790.22
2018-12-14T18:56:42.480Z,100788.25
2018-12-14T18:59:10.669Z,100795.63
2018-12-14T19:01:38.784Z,100798.27
2018-12-14T19:04:06.875Z,100806.45
2018-12-14T19:06:35.000Z,100805.65
2018-12-14T19:09:04.399Z,100804.81
2018-12-14T19:11:32.519Z,100805.96
2018-12-14T19:14:00.641Z,100810.41
2018-12-14T19:16:28.747Z,100823.00
2018-12-14T19:18:56.850Z,100817.13
2018-12-14T19:21:24.975Z,100826.77
2018-12-14T19:23:53.088Z,100830.88
2018-12-14T19:26:21.217Z,100836.63
2018-12-14T19:28:49.343Z,100834.17
2018-12-14T19:31:17.464Z,100833.02
2018-12-14T19:33:45.577Z,100834.32
2018-12-14T19:36:13.697Z,100833.83
2018-12-14T19:38:41.800Z,100840.74
2018-12-14T19:41:09.906Z,100840.24
2018-12-14T19:43:38.016Z,100840.55
2018-12-14T19:46:06.598Z,100841.55
2018-12-14T19:48:34.875Z,100844.99
2018-12-14T19:51:02.995Z,100844.52
2018-12-14T19:53:31.109Z,100847.30
2018-12-14T19:55:59.220Z,100841.56
2018-12-14T19:58:27.326Z,100842.84
2018-12-14T20:00:55.447Z,100840.39
2018-12-14T20:03:23.550Z,100844.00
2018-12-14T20:05:51.669Z,100846.13
2018-12-14T20:08:19.788Z,100844.66
2018-12-14T20:10:48.592Z,100842.86
2018-12-14T20:13:16.958Z,100842.69
2018-12-14T20:15:45.073Z,100842.38
2018-12-14T20:18:13.205Z,100839.59
2018-12-14T20:20:41.315Z,100841.38
2018-12-14T20:23:09.430Z,100840.72
2018-12-14T20:25:37.522Z,100846.63
2018-12-14T20:28:05.625Z,100848.27
2018-12-14T20:30:33.737Z,100842.38
2018-12-14T20:33:01.851Z,100846.15
2018-12-14T20:35:29.964Z,100847.31
2018-12-14T20:37:58.357Z,100850.42
2018-12-14T20:40:26.477Z,100854.05
2018-12-14T20:42:54.597Z,100859.77
2018-12-14T20:45:22.707Z,100851.89
2018-12-14T20:47:50.832Z,100857.63
2018-12-14T20:50:18.962Z,100862.07
2018-12-14T20:52:47.174Z,100865.03
2018-12-14T20:55:15.280Z,100862.38
2018-12-14T20:57:43.406Z,100865.85
2018-12-14T21:00:11.581Z,100864.20
2018-12-14T21:02:39.706Z,100869.59
2018-12-14T21:05:07.815Z,100867.48
2018-12-14T21:07:35.936Z,100868.14
2018-12-14T21:10:04.186Z,100866.84
2018-12-14T21:12:32.297Z,100862.89
2018-12-14T21:15:00.413Z,100862.88
2018-12-14T21:17:28.769Z,100871.23
2018-12-14T21:19:56.873Z,100867.47
2018-12-14T21:22:25.023Z,100864.20
2018-12-14T21:24:53.151Z,100866.02
2018-12-14T21:27:21.258Z,100866.64
2018-12-14T21:29:49.362Z,100865.66
2018-12-14T21:32:17.488Z,100862.05
2018-12-14T21:34:45.603Z,100856.16
2018-12-14T21:37:13.715Z,100848.61
2018-12-14T21:39:41.825Z,100851.89
2018-12-14T21:42:09.939Z,100847.47
2018-12-14T21:44:38.050Z,100848.95
2018-12-14T21:47:06.336Z,100846.00
2018-12-14T21:49:34.454Z,100845.83
2018-12-14T21:52:02.557Z,100848.48
2018-12-14T21:54:30.673Z,100842.72
2018-12-14T21:56:58.795Z,100837.63
2018-12-14T21:59:26.914Z,100840.23
2018-12-14T22:01:55.018Z,100838.44
2018-12-14T22:04:23.144Z,100838.13
2018-12-14T22:06:51.257Z,100838.78
2018-12-14T22:09:19.359Z,100842.38
2018-12-14T22:11:47.469Z,100837.63
2018-12-14T22:14:15.719Z,100839.27
2018-12-14T22:16:43.831Z,100838.78
2018-12-14T22:19:11.948Z,100834.66
2018-12-14T22:21:40.055Z,100842.56
2018-12-14T22:24:08.169Z,100839.11
2018-12-14T22:26:36.282Z,100841.41
2018-12-14T22:29:04.396Z,100839.09
2018-12-14T22:31:32.504Z,100837.97
2018-12-14T22:34:00.615Z,100836.49
2018-12-14T22:36:28.721Z,100838.95
2018-12-14T22:38:56.839Z,100835.81
2018-12-14T22:41:24.943Z,100836.16
2018-12-14T22:43:53.068Z,100835.01
2018-12-14T22:46:21.182Z,100834.18
2018-12-14T22:48:49.304Z,100842.05
2018-12-14T22:51:17.408Z,100836.97
2018-12-14T22:53:45.523Z,100836.64
2018-12-14T22:56:13.624Z,100839.94
2018-12-14T22:58:41.730Z,100835.48
2018-12-14T23:01:09.843Z,100835.34
2018-12-14T23:03:37.983Z,100834.68
2018-12-14T23:06:06.091Z,100839.11
2018-12-14T23:08:34.213Z,100841.39
2018-12-14T23:11:02.320Z,100840.25
2018-12-14T23:13:30.436Z,100844.84
2018-12-14T23:15:58.541Z,100841.56
2018-12-14T23:18:26.666Z,100846.98
2018-12-14T23:20:54.769Z,100842.55
2018-12-14T23:23:22.877Z,100846.32
2018-12-14T23:25:50.975Z,100843.23
2018-12-14T23:28:19.090Z,100842.58
2018-12-14T23:30:47.191Z,100844.02
2018-12-14T23:33:15.320Z,100839.77
2018-12-14T23:35:43.429Z,100836.47
2018-12-14T23:38:11.551Z,100835.34
2018-12-14T23:40:39.653Z,100838.28
2018-12-14T23:43:07.757Z,100837.61
2018-12-14T23:45:35.871Z,100833.84
2018-12-14T23:48:03.973Z,100834.48
2018-12-14T23:50:32.479Z,100835.96
2018-12-14T23:53:00.581Z,100837.13
2018-12-14T23:55:28.689Z,100842.36
2018-12-14T23:57:56.786Z,100842.70
